Time;durP1;ratioP1;P1;durP2;ratioP2;P2;SDS_P1;SDS_P2;PMS_P1;PMS_P2;Temp;Humidity;BMP_temperature;BMP_pressure;BME280_temperature;BME280_humidity;BME280_pressure;Samples;Min_cycle;Max_cycle;Signal;HPM_P1;HPM_P2
2023/03/09 00:01:23;;;;;;;4.38;2.63;;;;;;;-144.57;100.00;62443.72;5093796;28;20044;-63
2023/03/09 00:03:50;;;;;;;6.43;3.03;;;;;;;-144.57;100.00;62443.72;5092605;28;20040;-61
2023/03/09 00:06:16;;;;;;;4.95;2.88;;;;;;;-144.57;100.00;62443.72;5093583;28;20075;-61
2023/03/09 00:08:41;;;;;;;5.30;2.83;;;;;;;-144.57;100.00;62443.72;5093877;28;20139;-61
2023/03/09 00:11:08;;;;;;;3.83;2.72;;;;;;;-144.57;100.00;62443.72;5093590;28;20131;-61
2023/03/09 00:13:34;;;;;;;4.32;3.00;;;;;;;-144.57;100.00;62443.72;5093920;28;20043;-61
2023/03/09 00:16:28;;;;;;;3.80;2.83;;;;;;;-144.57;100.00;62443.72;5075590;28;20048;-63
2023/03/09 00:18:57;;;;;;;6.13;3.00;;;;;;;-144.57;100.00;62443.72;5089415;28;20044;-61
2023/03/09 00:21:38;;;;;;;5.90;2.95;;;;;;;-144.57;100.00;62443.72;5093420;28;20051;-61
2023/03/09 00:24:11;;;;;;;4.07;2.67;;;;;;;-144.57;100.00;62443.72;5092408;28;20123;-62
2023/03/09 00:26:43;;;;;;;5.75;3.30;;;;;;;-144.57;100.00;62443.72;5093287;28;20505;-61
2023/03/09 00:29:11;;;;;;;6.85;3.10;;;;;;;-144.57;100.00;62443.72;5092066;28;20044;-62
2023/03/09 00:31:37;;;;;;;4.25;2.50;;;;;;;-144.57;100.00;62443.72;5093202;28;20402;-62
2023/03/09 00:34:03;;;;;;;5.72;2.78;;;;;;;-144.57;100.00;62443.72;5075201;28;20478;-63
2023/03/09 00:36:29;;;;;;;5.50;2.58;;;;;;;-144.57;100.00;62443.72;5075050;28;20048;-62
2023/03/09 00:38:57;;;;;;;3.63;2.42;;;;;;;-144.57;100.00;62443.72;5091827;28;20514;-61
2023/03/09 00:41:26;;;;;;;2.92;2.22;;;;;;;-144.57;100.00;62443.72;5093052;28;20135;-62
2023/03/09 00:43:53;;;;;;;5.28;3.03;;;;;;;-144.57;100.00;62443.72;5093238;28;20131;-61
2023/03/09 00:46:19;;;;;;;5.95;2.67;;;;;;;-144.57;100.00;62443.72;5091687;28;20075;-63
2023/03/09 00:48:45;;;;;;;4.22;2.40;;;;;;;-144.57;100.00;62443.72;5093004;28;20040;-62
2023/03/09 00:51:11;;;;;;;4.07;2.67;;;;;;;-144.57;100.00;62443.72;5092790;28;20082;-64
2023/03/09 00:53:38;;;;;;;5.88;2.83;;;;;;;-144.57;100.00;62443.72;5091626;28;20072;-61
2023/03/09 00:56:07;;;;;;;4.32;2.80;;;;;;;-144.57;100.00;62443.72;5091768;28;20508;-62
2023/03/09 00:58:32;;;;;;;6.18;3.22;;;;;;;-144.57;100.00;62443.72;5091448;28;20044;-61
2023/03/09 01:00:58;;;;;;;4.97;3.10;;;;;;;-144.57;100.00;62443.72;5091356;28;20394;-63
2023/03/09 01:03:24;;;;;;;4.20;3.00;;;;;;;-144.57;100.00;62443.72;5091336;28;20048;-63
2023/03/09 01:05:51;;;;;;;6.50;3.40;;;;;;;-144.57;100.00;62443.72;5091131;28;20047;-61
2023/03/09 01:08:17;;;;;;;3.72;2.80;;;;;;;-144.57;100.00;62443.72;5092831;28;20043;-62
2023/03/09 01:10:43;;;;;;;4.60;2.92;;;;;;;-144.57;100.00;62443.72;5092172;28;20044;-62
2023/03/09 01:13:10;;;;;;;5.40;2.90;;;;;;;-144.57;100.00;62443.72;5092294;28;20489;-62
2023/03/09 01:15:36;;;;;;;4.50;2.90;;;;;;;-144.57;100.00;62443.72;5074417;28;20051;-63
2023/03/09 01:18:02;;;;;;;7.13;2.78;;;;;;;-144.57;100.00;62443.72;5074168;28;20043;-63
2023/03/09 01:20:28;;;;;;;4.40;2.58;;;;;;;-144.57;100.00;62443.72;5092505;28;20443;-63
2023/03/09 01:22:55;;;;;;;5.65;2.75;;;;;;;-144.57;100.00;62443.72;5091101;28;20044;-62
2023/03/09 01:25:21;;;;;;;3.60;2.65;;;;;;;-144.57;100.00;62443.72;5092385;28;20047;-63
2023/03/09 01:27:46;;;;;;;5.07;2.80;;;;;;;-144.57;100.00;62443.72;5090823;28;20095;-62
2023/03/09 01:30:12;;;;;;;6.90;3.10;;;;;;;-144.57;100.00;62443.72;5092307;28;20044;-61
2023/03/09 01:32:38;;;;;;;3.15;2.67;;;;;;;-144.57;100.00;62443.72;5091944;28;20079;-63
2023/03/09 01:35:05;;;;;;;5.78;2.90;;;;;;;-144.57;100.00;62443.72;5092014;28;20091;-63
2023/03/09 01:37:32;;;;;;;4.75;2.97;;;;;;;-144.57;100.00;62443.72;5074070;28;20052;-62
2023/03/09 01:39:57;;;;;;;5.25;2.88;;;;;;;-144.57;100.00;62443.72;5073752;28;20451;-62
2023/03/09 01:42:23;;;;;;;4.03;3.00;;;;;;;-144.57;100.00;62443.72;5090730;28;20051;-61
2023/03/09 01:45:10;;;;;;;4.00;3.05;;;;;;;-144.57;100.00;62443.72;5073794;28;20071;-62
2023/03/09 01:47:36;;;;;;;3.95;2.65;;;;;;;-144.57;100.00;62443.72;5092460;28;20079;-61
2023/03/09 01:50:04;;;;;;;5.07;2.95;;;;;;;-144.57;100.00;62443.72;5091115;28;20134;-61
2023/03/09 01:52:33;;;;;;;5.28;3.17;;;;;;;-144.57;100.00;62443.72;5073629;28;20397;-62
2023/03/09 01:55:09;;;;;;;5.93;3.00;;;;;;;-144.57;100.00;62443.72;5090298;28;20036;-62
2023/03/09 01:57:48;;;;;;;4.28;2.97;;;;;;;-144.57;100.00;62443.72;5090386;28;20044;-62
2023/03/09 02:00:19;;;;;;;5.80;3.00;;;;;;;-144.57;100.00;62443.72;5073747;28;20513;-62
2023/03/09 02:03:16;;;;;;;5.15;2.90;;;;;;;-144.57;100.00;62443.72;5090428;28;20481;-63
2023/03/09 02:05:56;;;;;;;6.25;3.15;;;;;;;-144.57;100.00;62443.72;5090307;28;20052;-63
2023/03/09 02:08:23;;;;;;;3.88;2.55;;;;;;;-144.57;100.00;62443.72;5090579;28;20055;-63
2023/03/09 02:10:55;;;;;;;5.00;3.38;;;;;;;-144.57;100.00;62443.72;5073851;28;20074;-62
2023/03/09 02:13:26;;;;;;;3.47;2.50;;;;;;;-144.57;100.00;62443.72;5090247;28;20226;-62
2023/03/09 02:15:51;;;;;;;4.07;2.88;;;;;;;-144.57;100.00;62443.72;5056589;28;20075;-62
2023/03/09 02:18:17;;;;;;;3.33;2.53;;;;;;;-144.57;100.00;62443.72;5090287;28;20087;-62
2023/03/09 02:21:08;;;;;;;6.50;3.42;;;;;;;-144.57;100.00;62443.72;5089506;28;20056;-64
2023/03/09 02:23:36;;;;;;;;;;;;;;;-144.57;100.00;62443.72;5065192;28;20496;-62
2023/03/09 02:26:17;;;;;;;5.40;3.20;;;;;;;-144.57;100.00;62443.72;5091311;28;19924;-64
2023/03/09 02:28:43;;;;;;;4.15;2.90;;;;;;;-144.57;100.00;62443.72;5091458;28;20040;-61
2023/03/09 02:31:10;;;;;;;5.25;3.17;;;;;;;-144.57;100.00;62443.72;5090084;28;20043;-63
2023/03/09 02:33:36;;;;;;;3.50;2.42;;;;;;;-144.57;100.00;62443.72;5073273;28;20036;-60
2023/03/09 02:36:02;;;;;;;4.25;3.08;;;;;;;-144.57;100.00;62443.72;5089931;28;20082;-64
2023/03/09 02:38:32;;;;;;;3.88;2.80;;;;;;;-144.57;100.00;62443.72;5090085;28;20492;-62
2023/03/09 02:41:00;;;;;;;5.53;2.47;;;;;;;-144.57;100.00;62443.72;5073042;28;20523;-62
2023/03/09 02:43:32;;;;;;;4.35;2.88;;;;;;;-144.57;100.00;62443.72;5073108;28;20412;-64
2023/03/09 02:45:58;;;;;;;4.75;2.67;;;;;;;-144.57;100.00;62443.72;5072864;28;20054;-62
2023/03/09 02:48:24;;;;;;;4.72;3.03;;;;;;;-144.57;100.00;62443.72;5089907;28;20051;-61
2023/03/09 02:50:49;;;;;;;5.18;3.00;;;;;;;-144.57;100.00;62443.72;5073048;28;20044;-62
2023/03/09 02:53:15;;;;;;;5.65;2.53;;;;;;;-144.57;100.00;62443.72;5089898;28;20052;-63
2023/03/09 02:55:41;;;;;;;3.97;2.88;;;;;;;-144.57;100.00;62443.72;5089696;28;20058;-62
2023/03/09 02:58:09;;;;;;;3.75;2.97;;;;;;;-144.57;100.00;62443.72;5089752;28;20062;-62
2023/03/09 03:00:35;;;;;;;5.45;2.60;;;;;;;-144.57;100.00;62443.72;5089472;28;20505;-63
2023/03/09 03:03:01;;;;;;;4.68;2.80;;;;;;;-144.57;100.00;62443.72;5089653;28;20036;-61
2023/03/09 03:05:29;;;;;;;4.18;2.90;;;;;;;-144.57;100.00;62443.72;5089460;28;20051;-61
2023/03/09 03:07:55;;;;;;;4.60;2.78;;;;;;;-144.57;100.00;62443.72;5091018;28;20150;-61
2023/03/09 03:10:22;;;;;;;5.97;2.97;;;;;;;-144.57;100.00;62443.72;5089658;28;20052;-63
2023/03/09 03:12:48;;;;;;;4.75;2.97;;;;;;;-144.57;100.00;62443.72;5056580;28;20036;-62
2023/03/09 03:15:14;;;;;;;3.70;2.53;;;;;;;-144.57;100.00;62443.72;5089908;28;20516;-62
2023/03/09 03:17:40;;;;;;;4.68;2.80;;;;;;;-144.57;100.00;62443.72;5089517;28;20598;-61
2023/03/09 03:20:14;;;;;;;4.43;2.55;;;;;;;-144.57;100.00;62443.72;5089545;28;20048;-60
2023/03/09 03:22:42;;;;;;;4.53;2.63;;;;;;;-144.57;100.00;62443.72;5089526;28;20048;-62
2023/03/09 03:25:08;;;;;;;6.18;2.65;;;;;;;-144.57;100.00;62443.72;5072691;28;20472;-63
2023/03/09 03:27:38;;;;;;;;;;;;;;;-144.57;100.00;62443.72;5089984;28;20059;-61
2023/03/09 03:30:05;;;;;;;4.40;2.80;;;;;;;-144.57;100.00;62443.72;5089560;28;20014;-61
2023/03/09 03:32:33;;;;;;;5.05;2.47;;;;;;;-144.57;100.00;62443.72;5074321;28;20498;-61
2023/03/09 03:34:59;;;;;;;3.60;2.92;;;;;;;-144.57;100.00;62443.72;5092867;28;20083;-62
2023/03/09 03:37:25;;;;;;;3.72;2.63;;;;;;;-144.57;100.00;62443.72;5076045;28;20082;-62
2023/03/09 03:39:51;;;;;;;3.53;2.50;;;;;;;-144.57;100.00;62443.72;5093146;28;20566;-62
2023/03/09 03:42:17;;;;;;;4.45;2.50;;;;;;;-144.57;100.00;62443.72;5093032;28;20083;-61
2023/03/09 03:44:43;;;;;;;4.78;2.58;;;;;;;-144.57;100.00;62443.72;5093059;28;20076;-61
2023/03/09 03:47:10;;;;;;;4.22;2.78;;;;;;;-144.57;100.00;62443.72;5092678;28;20048;-61
2023/03/09 03:49:36;;;;;;;6.18;2.70;;;;;;;-144.57;100.00;62443.72;5094404;28;20046;-60
2023/03/09 03:52:04;;;;;;;3.97;2.70;;;;;;;-144.57;100.00;62443.72;5094011;28;20097;-60
2023/03/09 03:54:30;;;;;;;4.13;2.63;;;;;;;-144.57;100.00;62443.72;5075767;28;20423;-62
2023/03/09 03:56:58;;;;;;;4.93;2.50;;;;;;;-144.57;100.00;62443.72;5093803;28;20047;-62
2023/03/09 03:59:23;;;;;;;3.15;2.65;;;;;;;-144.57;100.00;62443.72;5092531;28;20043;-62
2023/03/09 04:01:49;;;;;;;3.40;2.42;;;;;;;-144.57;100.00;62443.72;5075727;28;20044;-63
2023/03/09 04:04:15;;;;;;;3.63;2.50;;;;;;;-144.57;100.00;62443.72;5075405;28;20093;-62
2023/03/09 04:06:48;;;;;;;5.43;2.90;;;;;;;-144.57;100.00;62443.72;5091929;28;20064;-61
2023/03/09 04:09:15;;;;;;;3.83;2.22;;;;;;;-144.57;100.00;62443.72;5075739;28;20040;-62
2023/03/09 04:11:41;;;;;;;6.25;2.63;;;;;;;-144.57;100.00;62443.72;5091556;28;20086;-62
2023/03/09 04:14:07;;;;;;;4.53;2.50;;;;;;;-144.57;100.00;62443.72;5091178;28;20559;-61
2023/03/09 04:16:33;;;;;;;8.32;2.42;;;;;;;-144.57;100.00;62443.72;5090057;28;20044;-63
2023/03/09 04:18:59;;;;;;;5.20;2.15;;;;;;;-144.57;100.00;62443.72;5057512;28;20047;-62
2023/03/09 04:21:25;;;;;;;7.72;2.55;;;;;;;-144.57;100.00;62443.72;5090865;28;20040;-62
2023/03/09 04:23:51;;;;;;;3.92;2.50;;;;;;;-144.57;100.00;62443.72;5091768;28;20469;-62
2023/03/09 04:26:17;;;;;;;4.00;2.47;;;;;;;-144.57;100.00;62443.72;5091511;28;20134;-61
2023/03/09 04:28:51;;;;;;;4.00;2.78;;;;;;;-144.57;100.00;62443.72;5091449;28;20048;-60
2023/03/09 04:31:18;;;;;;;6.25;3.15;;;;;;;-144.57;100.00;62443.72;5090953;28;20075;-62
2023/03/09 04:33:44;;;;;;;5.32;2.47;;;;;;;-144.57;100.00;62443.72;5073463;28;20094;-63
2023/03/09 04:36:13;;;;;;;4.05;2.38;;;;;;;-144.57;100.00;62443.72;5090201;28;20126;-62
2023/03/09 04:38:40;;;;;;;4.40;2.60;;;;;;;-144.57;100.00;62443.72;5074085;28;20071;-63
2023/03/09 04:41:07;;;;;;;3.42;2.55;;;;;;;-144.57;100.00;62443.72;5091105;28;20048;-62
2023/03/09 04:43:33;;;;;;;7.20;2.47;;;;;;;-144.57;100.00;62443.72;5073998;28;20044;-61
2023/03/09 04:45:59;;;;;;;5.03;2.67;;;;;;;-144.57;100.00;62443.72;5073874;28;20044;-62
2023/03/09 04:48:27;;;;;;;3.72;2.63;;;;;;;-144.57;100.00;62443.72;5091198;28;20509;-61
2023/03/09 04:50:53;;;;;;;4.53;2.53;;;;;;;-144.57;100.00;62443.72;5074349;28;20073;-63
2023/03/09 04:53:19;;;;;;;5.38;2.65;;;;;;;-144.57;100.00;62443.72;5073962;28;20401;-62
2023/03/09 04:55:46;;;;;;;6.43;2.92;;;;;;;-144.57;100.00;62443.72;5068418;28;20072;-62
2023/03/09 04:58:14;;;;;;;4.72;2.60;;;;;;;-144.57;100.00;62443.72;5086679;28;20040;-62
2023/03/09 05:00:40;;;;;;;4.47;2.58;;;;;;;-144.57;100.00;62443.72;5086276;28;20040;-62
2023/03/09 05:03:09;;;;;;;5.13;2.45;;;;;;;-144.57;100.00;62443.72;5053671;28;20128;-62
2023/03/09 05:05:40;;;;;;;3.67;2.55;;;;;;;-144.57;100.00;62443.72;5070336;28;20044;-61
2023/03/09 05:08:06;;;;;;;4.40;2.63;;;;;;;-144.57;100.00;62443.72;5091466;28;20056;-62
2023/03/09 05:10:33;;;;;;;4.13;2.70;;;;;;;-144.57;100.00;62443.72;5090804;28;20050;-62
2023/03/09 05:12:58;;;;;;;3.63;2.10;;;;;;;-144.57;100.00;62443.72;5090608;28;20040;-60
2023/03/09 05:15:27;;;;;;;4.15;2.30;;;;;;;-144.57;100.00;62443.72;5090037;28;20058;-62
2023/03/09 05:17:53;;;;;;;6.95;2.38;;;;;;;-144.57;100.00;62443.72;5073120;28;20126;-62
2023/03/09 05:20:19;;;;;;;3.78;2.70;;;;;;;-144.57;100.00;62443.72;5073875;28;20492;-62
2023/03/09 05:22:54;;;;;;;4.90;2.88;;;;;;;-144.57;100.00;62443.72;5090780;28;20079;-62
2023/03/09 05:25:21;;;;;;;2.65;2.20;;;;;;;-144.57;100.00;62443.72;5090851;28;20125;-63
2023/03/09 05:27:47;;;;;;;4.07;2.55;;;;;;;-144.57;100.00;62443.72;5091930;28;20523;-63
2023/03/09 05:30:13;;;;;;;5.00;2.70;;;;;;;-144.57;100.00;62443.72;5056588;28;20040;-63
2023/03/09 05:32:40;;;;;;;4.07;2.47;;;;;;;-144.57;100.00;62443.72;5090347;28;20078;-62
2023/03/09 05:35:06;;;;;;;3.25;2.15;;;;;;;-144.57;100.00;62443.72;5073908;28;20044;-64
2023/03/09 05:37:33;;;;;;;3.97;2.50;;;;;;;-144.57;100.00;62443.72;5072971;28;20090;-61
2023/03/09 05:40:01;;;;;;;4.22;2.70;;;;;;;-144.57;100.00;62443.72;5090244;28;20116;-63
2023/03/09 05:42:28;;;;;;;5.00;2.60;;;;;;;-144.57;100.00;62443.72;5091785;28;20036;-62
2023/03/09 05:44:54;;;;;;;4.82;2.58;;;;;;;-144.57;100.00;62443.72;5072596;28;20040;-62
2023/03/09 05:47:20;;;;;;;2.75;2.55;;;;;;;-144.57;100.00;62443.72;5090023;28;20545;-62
2023/03/09 05:49:48;;;;;;;2.80;2.03;;;;;;;-144.57;100.00;62443.72;5090367;28;20096;-63
2023/03/09 05:52:14;;;;;;;3.47;2.28;;;;;;;-144.57;100.00;62443.72;5091171;28;20040;-61
2023/03/09 05:54:40;;;;;;;3.33;2.60;;;;;;;-144.57;100.00;62443.72;5069617;28;20673;-63
2023/03/09 05:57:11;;;;;;;5.85;2.33;;;;;;;-144.57;100.00;62443.72;5069342;28;20048;-63
2023/03/09 05:59:37;;;;;;;3.72;2.15;;;;;;;-144.57;100.00;62443.72;5087080;28;20549;-62
2023/03/09 06:02:04;;;;;;;4.03;2.63;;;;;;;-144.57;100.00;62443.72;5069772;28;20093;-63
2023/03/09 06:04:31;;;;;;;4.57;2.45;;;;;;;-144.57;100.00;62443.72;5070125;28;20052;-62
2023/03/09 06:07:01;;;;;;;;;;;;;;;-144.57;100.00;62443.72;5070234;28;20053;-63
2023/03/09 06:09:34;;;;;;;5.22;2.08;;;;;;;-144.57;100.00;62443.72;5054328;28;19927;-62
2023/03/09 06:12:02;;;;;;;4.47;2.10;;;;;;;-144.57;100.00;62443.72;5069814;28;20121;-63
2023/03/09 06:14:28;;;;;;;3.38;2.08;;;;;;;-144.57;100.00;62443.72;5069736;28;20040;-63
2023/03/09 06:16:54;;;;;;;5.15;2.40;;;;;;;-144.57;100.00;62443.72;5052648;28;20078;-64
2023/03/09 06:19:20;;;;;;;4.63;2.30;;;;;;;-144.57;100.00;62443.72;5069145;28;20166;-62
2023/03/09 06:21:46;;;;;;;4.22;2.33;;;;;;;-144.57;100.00;62443.72;5068868;28;20540;-61
2023/03/09 06:24:12;;;;;;;4.15;2.28;;;;;;;-144.57;100.00;62443.72;5052947;28;20076;-62
2023/03/09 06:26:38;;;;;;;7.85;2.30;;;;;;;-144.57;100.00;62443.72;5069220;28;20124;-62
2023/03/09 06:29:09;;;;;;;3.03;2.00;;;;;;;-144.57;100.00;62443.72;5068966;28;20101;-62
2023/03/09 06:31:39;;;;;;;4.25;2.33;;;;;;;-144.57;100.00;62443.72;5069206;28;20521;-62
2023/03/09 06:34:04;;;;;;;3.58;2.42;;;;;;;-144.57;100.00;62443.72;5052068;28;20048;-64
2023/03/09 06:36:32;;;;;;;4.78;1.92;;;;;;;-144.57;100.00;62443.72;5069583;28;20053;-62
2023/03/09 06:38:58;;;;;;;3.88;2.05;;;;;;;-144.57;100.00;62443.72;5070384;28;20085;-62
2023/03/09 06:41:31;;;;;;;3.88;2.28;;;;;;;-144.57;100.00;62443.72;5068447;28;20048;-63
2023/03/09 06:44:18;;;;;;;4.28;2.25;;;;;;;-144.57;100.00;62443.72;5070463;28;20125;-61
2023/03/09 06:46:45;;;;;;;3.35;2.00;;;;;;;-144.57;100.00;62443.72;5052559;28;20049;-62
2023/03/09 06:49:13;;;;;;;2.38;1.70;;;;;;;-144.57;100.00;62443.72;5085757;28;20044;-64
2023/03/09 06:51:39;;;;;;;3.60;2.35;;;;;;;-144.57;100.00;62443.72;5068828;28;20045;-64
2023/03/09 06:54:05;;;;;;;2.15;1.90;;;;;;;-144.57;100.00;62443.72;5071039;28;20098;-62
2023/03/09 06:56:36;;;;;;;3.33;2.10;;;;;;;-144.57;100.00;62443.72;5088343;28;20499;-64
2023/03/09 06:59:01;;;;;;;3.40;1.75;;;;;;;-144.57;100.00;62443.72;5088906;28;20122;-63
2023/03/09 07:01:27;;;;;;;2.33;1.92;;;;;;;-144.57;100.00;62443.72;5088153;28;20040;-63
2023/03/09 07:03:57;;;;;;;2.55;1.63;;;;;;;-144.57;100.00;62443.72;5071978;28;20044;-63
2023/03/09 07:06:23;;;;;;;4.47;2.10;;;;;;;-144.57;100.00;62443.72;5089713;28;20102;-63
2023/03/09 07:08:48;;;;;;;3.58;2.17;;;;;;;-144.57;100.00;62443.72;5092599;28;20054;-60
2023/03/09 07:11:14;;;;;;;3.90;1.98;;;;;;;-144.57;100.00;62443.72;5094333;28;20417;-62
2023/03/09 07:13:40;;;;;;;4.93;1.80;;;;;;;-144.57;100.00;62443.72;5094269;28;20114;-61
2023/03/09 07:16:06;;;;;;;3.38;1.90;;;;;;;-144.57;100.00;62443.72;5092479;28;20036;-62
2023/03/09 07:18:32;;;;;;;2.60;1.92;;;;;;;-144.57;100.00;62443.72;5093175;28;20066;-62
2023/03/09 07:21:06;;;;;;;3.33;2.10;;;;;;;-144.57;100.00;62443.72;5093797;28;20044;-61
2023/03/09 07:23:37;;;;;;;3.60;2.00;;;;;;;-144.57;100.00;62443.72;5041851;28;20067;-63
2023/03/09 07:26:03;;;;;;;2.28;1.90;;;;;;;-144.57;100.00;62443.72;5092061;28;20086;-62
2023/03/09 07:28:30;;;;;;;2.70;1.80;;;;;;;-144.57;100.00;62443.72;5092753;28;20032;-61
2023/03/09 07:30:55;;;;;;;2.90;1.70;;;;;;;-144.57;100.00;62443.72;5092775;28;20036;-63
2023/03/09 07:33:21;;;;;;;2.63;1.63;;;;;;;-144.57;100.00;62443.72;5094657;28;20036;-63
2023/03/09 07:35:47;;;;;;;2.35;1.90;;;;;;;-144.57;100.00;62443.72;5093426;28;20048;-62
2023/03/09 07:38:13;;;;;;;2.00;1.60;;;;;;;-144.57;100.00;62443.72;5093629;28;20040;-62
2023/03/09 07:40:39;;;;;;;3.75;2.00;;;;;;;-144.57;100.00;62443.72;5092819;28;20093;-65
2023/03/09 07:43:04;;;;;;;1.70;1.48;;;;;;;-144.57;100.00;62443.72;5091864;28;20508;-63
2023/03/09 07:45:50;;;;;;;2.53;1.60;;;;;;;-144.57;100.00;62443.72;5093641;28;20051;-62
2023/03/09 07:48:16;;;;;;;3.33;1.80;;;;;;;-144.57;100.00;62443.72;5093579;28;20044;-61
2023/03/09 07:50:43;;;;;;;2.65;1.75;;;;;;;-144.57;100.00;62443.72;5092511;28;20065;-63
2023/03/09 07:53:09;;;;;;;3.75;1.70;;;;;;;-144.57;100.00;62443.72;5091032;28;20503;-62
2023/03/09 07:55:36;;;;;;;1.60;1.45;;;;;;;-144.57;100.00;62443.72;5091302;28;20069;-63
2023/03/09 07:58:02;;;;;;;2.85;1.50;;;;;;;-144.57;100.00;62443.72;5093143;28;20058;-62
2023/03/09 08:00:28;;;;;;;2.72;1.60;;;;;;;-144.57;100.00;62443.72;5075247;28;20573;-62
2023/03/09 08:02:56;;;;;;;2.97;1.70;;;;;;;-144.57;100.00;62443.72;5091865;28;20090;-64
2023/03/09 08:05:21;;;;;;;3.10;1.65;;;;;;;-144.57;100.00;62443.72;5091435;28;20055;-64
2023/03/09 08:07:47;;;;;;;2.90;1.67;;;;;;;-144.57;100.00;62443.72;5092037;28;20068;-62
2023/03/09 08:10:15;;;;;;;3.00;1.65;;;;;;;-144.57;100.00;62443.72;5107401;28;20171;-65
2023/03/09 08:12:43;;;;;;;3.03;1.63;;;;;;;-144.57;100.00;62443.72;5111868;28;20031;-63
2023/03/09 08:15:09;;;;;;;3.55;2.10;;;;;;;-144.57;100.00;62443.72;5114216;28;20052;-63
2023/03/09 08:17:35;;;;;;;2.95;1.90;;;;;;;-144.57;100.00;62443.72;5112508;28;20043;-62
2023/03/09 08:20:01;;;;;;;2.60;1.80;;;;;;;-144.57;100.00;62443.72;5093433;28;20044;-63
2023/03/09 08:22:26;;;;;;;5.28;2.25;;;;;;;-144.57;100.00;62443.72;5112174;28;20039;-64
2023/03/09 08:24:52;;;;;;;6.13;1.92;;;;;;;-144.57;100.00;62443.72;5113214;28;20065;-64
2023/03/09 08:27:18;;;;;;;3.08;1.50;;;;;;;-144.57;100.00;62443.72;5109783;28;20105;-63
2023/03/09 08:29:44;;;;;;;3.42;1.80;;;;;;;-144.57;100.00;62443.72;5112782;28;20032;-62
2023/03/09 08:32:09;;;;;;;3.38;1.50;;;;;;;-144.57;100.00;62443.72;5112531;28;20386;-63
2023/03/09 08:34:36;;;;;;;5.70;1.70;;;;;;;-144.57;100.00;62443.72;5113186;28;20112;-62
2023/03/09 08:37:02;;;;;;;5.90;2.00;;;;;;;-144.57;100.00;62443.72;5112493;28;20085;-62
2023/03/09 08:39:27;;;;;;;2.30;1.63;;;;;;;-144.57;100.00;62443.72;5113026;28;20044;-63
2023/03/09 08:41:53;;;;;;;2.13;1.58;;;;;;;-144.57;100.00;62443.72;5112948;28;20047;-63
2023/03/09 08:44:18;;;;;;;2.72;1.58;;;;;;;-144.57;100.00;62443.72;5111961;28;20035;-63
2023/03/09 08:46:44;;;;;;;2.92;1.70;;;;;;;-144.57;100.00;62443.72;5092995;28;20418;-64
2023/03/09 08:49:10;;;;;;;1.88;1.40;;;;;;;-144.57;100.00;62443.72;5113453;28;20041;-62
2023/03/09 08:51:35;;;;;;;3.13;1.90;;;;;;;-144.57;100.00;62443.72;5111516;28;20039;-63
2023/03/09 08:54:01;;;;;;;2.47;1.42;;;;;;;-144.57;100.00;62443.72;5111661;28;20491;-63
2023/03/09 08:56:27;;;;;;;2.13;1.92;;;;;;;-144.57;100.00;62443.72;5093962;28;20064;-65
2023/03/09 08:58:52;;;;;;;3.53;1.60;;;;;;;-144.57;100.00;62443.72;5072585;28;20044;-64
2023/03/09 09:01:18;;;;;;;3.35;1.70;;;;;;;-144.57;100.00;62443.72;5090746;28;20079;-62
2023/03/09 09:03:44;;;;;;;1.52;1.40;;;;;;;-144.57;100.00;62443.72;5091673;28;20442;-62
2023/03/09 09:06:12;;;;;;;1.88;1.38;;;;;;;-144.57;100.00;62443.72;5091906;28;20048;-64
2023/03/09 09:08:38;;;;;;;1.75;1.50;;;;;;;-144.57;100.00;62443.72;5090479;28;20139;-63
2023/03/09 09:11:06;;;;;;;2.55;1.40;;;;;;;-144.57;100.00;62443.72;5091197;28;20122;-63
2023/03/09 09:13:32;;;;;;;3.13;1.50;;;;;;;-144.57;100.00;62443.72;5090731;28;20139;-61
2023/03/09 09:15:59;;;;;;;6.57;1.70;;;;;;;-144.57;100.00;62443.72;5091778;28;20119;-63
2023/03/09 09:18:25;;;;;;;1.73;1.50;;;;;;;-144.57;100.00;62443.72;5091436;28;20032;-62
2023/03/09 09:20:51;;;;;;;3.00;1.40;;;;;;;-144.57;100.00;62443.72;5088532;28;20040;-62
2023/03/09 09:23:17;;;;;;;1.90;1.40;;;;;;;-144.57;100.00;62443.72;5088124;28;20032;-62
2023/03/09 09:25:43;;;;;;;2.45;1.20;;;;;;;-144.57;100.00;62443.72;5089414;28;20044;-62
2023/03/09 09:28:09;;;;;;;2.20;1.58;;;;;;;-144.57;100.00;62443.72;5090357;28;20067;-63
2023/03/09 09:30:36;;;;;;;1.65;1.45;;;;;;;-144.57;100.00;62443.72;5091145;28;20055;-64
2023/03/09 09:33:04;;;;;;;2.83;1.42;;;;;;;-144.57;100.00;62443.72;5089548;28;20036;-63
2023/03/09 09:35:30;;;;;;;1.65;1.45;;;;;;;-144.57;100.00;62443.72;5089881;28;20044;-63
2023/03/09 09:37:57;;;;;;;2.45;1.33;;;;;;;-144.57;100.00;62443.72;5091079;28;20036;-65
2023/03/09 09:40:23;;;;;;;2.70;1.20;;;;;;;-144.57;100.00;62443.72;5090519;28;20044;-65
2023/03/09 09:42:48;;;;;;;3.42;1.45;;;;;;;-144.57;100.00;62443.72;5072766;28;20173;-63
2023/03/09 09:45:43;;;;;;;2.97;1.52;;;;;;;-144.57;100.00;62443.72;5090292;28;20036;-62
2023/03/09 09:48:17;;;;;;;2.08;1.40;;;;;;;-144.57;100.00;62443.72;5087426;28;20043;-61
2023/03/09 09:50:48;;;;;;;2.30;1.40;;;;;;;-144.57;100.00;62443.72;5072720;28;20087;-64
2023/03/09 09:53:32;;;;;;;2.10;1.50;;;;;;;-144.57;100.00;62443.72;5088235;28;20063;-62
2023/03/09 09:55:59;;;;;;;2.35;1.52;;;;;;;-144.57;100.00;62443.72;5088556;28;20054;-62
2023/03/09 09:58:39;;;;;;;4.55;1.50;;;;;;;-144.57;100.00;62443.72;5088249;28;20044;-63
2023/03/09 10:01:17;;;;;;;2.83;1.40;;;;;;;-144.57;100.00;62443.72;5089186;28;20050;-62
2023/03/09 10:03:45;;;;;;;2.63;1.40;;;;;;;-144.57;100.00;62443.72;5090207;28;20047;-63
2023/03/09 10:06:17;;;;;;;4.40;1.40;;;;;;;-144.57;100.00;62443.72;5090198;28;20432;-64
2023/03/09 10:08:54;;;;;;;2.63;1.13;;;;;;;-144.57;100.00;62443.72;5089275;28;20465;-62
2023/03/09 10:11:24;;;;;;;2.42;1.20;;;;;;;-144.57;100.00;62443.72;5089269;28;20557;-62
2023/03/09 10:13:55;;;;;;;2.05;1.45;;;;;;;-144.57;100.00;62443.72;5089972;28;20044;-63
2023/03/09 10:16:26;;;;;;;1.98;1.10;;;;;;;-144.57;100.00;62443.72;5088925;28;20052;-64
2023/03/09 10:18:56;;;;;;;2.65;1.38;;;;;;;-144.57;100.00;62443.72;5088102;28;20043;-63
2023/03/09 10:21:26;;;;;;;2.60;1.42;;;;;;;-144.57;100.00;62443.72;5088942;28;20044;-63
2023/03/09 10:23:52;;;;;;;2.25;1.40;;;;;;;-144.57;100.00;62443.72;5088276;28;20079;-63
2023/03/09 10:26:43;;;;;;;2.30;1.38;;;;;;;-144.57;100.00;62443.72;5070719;28;20139;-62
2023/03/09 10:29:15;;;;;;;2.85;1.60;;;;;;;-144.57;100.00;62443.72;5072494;28;20043;-62
2023/03/09 10:31:51;;;;;;;2.38;1.20;;;;;;;-144.57;100.00;62443.72;5089406;28;20131;-63
2023/03/09 10:34:21;;;;;;;1.30;1.20;;;;;;;-144.57;100.00;62443.72;5091179;28;20101;-62
2023/03/09 10:37:00;;;;;;;1.45;1.10;;;;;;;-144.57;100.00;62443.72;5090762;28;20056;-62
2023/03/09 10:39:29;;;;;;;5.43;1.20;;;;;;;-144.57;100.00;62443.72;5089814;28;20090;-63
2023/03/09 10:41:59;;;;;;;3.35;1.63;;;;;;;-144.57;100.00;62443.72;5089962;28;20044;-63
2023/03/09 10:44:25;;;;;;;3.43;1.30;;;;;;;-144.57;100.00;62443.72;5093402;28;20059;-62
2023/03/09 10:46:58;;;;;;;1.83;1.30;;;;;;;-144.57;100.00;62443.72;5094424;28;20054;-63
2023/03/09 10:49:25;;;;;;;2.38;1.58;;;;;;;-144.57;100.00;62443.72;5093401;28;20184;-62
2023/03/09 10:52:00;;;;;;;3.58;1.50;;;;;;;-144.57;100.00;62443.72;5094268;28;20040;-62
2023/03/09 10:54:37;;;;;;;2.13;1.30;;;;;;;-144.57;100.00;62443.72;5092487;28;20479;-62
2023/03/09 10:57:37;;;;;;;2.42;1.23;;;;;;;-144.57;100.00;62443.72;5093398;28;20066;-62
2023/03/09 11:00:09;;;;;;;2.67;1.60;;;;;;;-144.57;100.00;62443.72;5059692;28;20059;-63
2023/03/09 11:02:36;;;;;;;3.28;1.60;;;;;;;-144.57;100.00;62443.72;5093388;28;20420;-61
2023/03/09 11:05:19;;;;;;;3.30;1.50;;;;;;;-144.57;100.00;62443.72;5094919;28;20060;-64
2023/03/09 11:07:56;;;;;;;2.85;1.55;;;;;;;-144.57;100.00;62443.72;5093502;28;20147;-62
2023/03/09 11:10:25;;;;;;;2.28;1.58;;;;;;;-144.57;100.00;62443.72;5076239;28;20048;-62
2023/03/09 11:12:51;;;;;;;2.90;1.30;;;;;;;-144.57;100.00;62443.72;5093930;28;20097;-63
2023/03/09 11:15:16;;;;;;;1.85;1.35;;;;;;;-144.57;100.00;62443.72;5092647;28;20493;-62